Time;durP1;ratioP1;P1;durP2;ratioP2;P2;SDS_P1;SDS_P2;PMS_P1;PMS_P2;Temp;Humidity;BMP_temperature;BMP_pressure;BME280_temperature;BME280_humidity;BME280_pressure;Samples;Min_cycle;Max_cycle;Signal;HPM_P1;HPM_P2
2021/12/01 00:00:09;;;;;;;;;;;;;;;;;;2055319;28;20403;-47
2021/12/01 00:01:10;;;;;;;;;;;;;;;;;;2052490;28;19926;-47
2021/12/01 00:02:11;;;;;;;;;;;;;;;;;;2049457;28;19926;-48
2021/12/01 00:03:12;;;;;;;;;;;;;;;;;;2050904;28;19932;-47
2021/12/01 00:04:14;;;;;;;;;;;;;;;;;;2055280;28;20399;-49
2021/12/01 00:05:15;;;;;;;;;;;;;;;;;;2057338;28;20013;-50
2021/12/01 00:06:16;;;;;;;;;;;;;;;;;;2056558;28;19926;-47
2021/12/01 00:07:17;;;;;;;;;;;;;;;;;;2055998;28;20013;-47
2021/12/01 00:08:18;;;;;;;;;;;;;;;;;;2057516;28;20024;-49
2021/12/01 00:09:19;;;;;;;;;;;;;;;;;;2054866;28;19962;-47
2021/12/01 00:10:20;;;;;;;;;;;;;;;;;;2056578;28;20331;-47
2021/12/01 00:11:21;;;;;;;;;;;;;;;;;;2057520;28;20013;-49
2021/12/01 00:12:22;;;;;;;;;;;;;;;;;;2055408;28;19927;-47
2021/12/01 00:13:23;;;;;;;;;;;;;;;;;;2056217;28;20073;-50
2021/12/01 00:14:24;;;;;;;;;;;;;;;;;;2057530;28;19926;-47
2021/12/01 00:15:24;;;;;;;;;;;;;;;;;;2055321;28;20017;-47
2021/12/01 00:16:25;;;;;;;;;;;;;;;;;;2057085;28;19929;-47
2021/12/01 00:17:26;;;;;;;;;;;;;;;;;;2057466;28;19933;-47
2021/12/01 00:18:27;;;;;;;;;;;;;;;;;;2055110;28;19966;-47
2021/12/01 00:19:29;;;;;;;;;;;;;;;;;;2057390;28;20110;-48
2021/12/01 00:20:30;;;;;;;;;;;;;;;;;;2057357;28;20314;-47
2021/12/01 00:21:31;;;;;;;;;;;;;;;;;;2054040;28;19973;-47
2021/12/01 00:22:32;;;;;;;;;;;;;;;;;;2057186;28;20403;-48
2021/12/01 00:23:33;;;;;;;;;;;;;;;;;;2057503;28;19926;-48
2021/12/01 00:24:34;;;;;;;;;;;;;;;;;;2053621;28;19934;-47
2021/12/01 00:25:39;;;;;;;;;;;;;;;;;;2057263;28;20403;-47
2021/12/01 00:26:40;;;;;;;;;;;;;;;;;;2056930;28;19926;-50
2021/12/01 00:27:42;;;;;;;;;;;;;;;;;;2054305;28;20025;-47
2021/12/01 00:28:43;;;;;;;;;;;;;;;;;;2057476;28;20017;-47
2021/12/01 00:29:44;;;;;;;;;;;;;;;;;;2056838;28;19969;-47
2021/12/01 00:30:45;;;;;;;;;;;;;;;;;;2055590;28;19929;-48
2021/12/01 00:31:46;;;;;;;;;;;;;;;;;;2057256;28;20344;-47
2021/12/01 00:32:47;;;;;;;;;;;;;;;;;;2056630;28;19977;-49
2021/12/01 00:33:48;;;;;;;;;;;;;;;;;;2055749;28;20029;-46
2021/12/01 00:34:49;;;;;;;;;;;;;;;;;;2057272;28;20401;-48
2021/12/01 00:35:49;;;;;;;;;;;;;;;;;;2056697;28;19926;-48
2021/12/01 00:36:51;;;;;;;;;;;;;;;;;;2053729;28;20291;-48
2021/12/01 00:37:51;;;;;;;;;;;;;;;;;;2057307;28;20013;-47
2021/12/01 00:38:52;;;;;;;;;;;;;;;;;;2056371;28;19926;-47
2021/12/01 00:39:53;;;;;;;;;;;;;;;;;;2054727;28;19926;-46
2021/12/01 00:40:54;;;;;;;;;;;;;;;;;;2057245;28;19926;-49
2021/12/01 00:41:56;;;;;;;;;;;;;;;;;;2056235;28;20052;-50
2021/12/01 00:42:57;;;;;;;;;;;;;;;;;;2056334;28;19968;-50
2021/12/01 00:43:58;;;;;;;;;;;;;;;;;;2057314;28;19930;-49
2021/12/01 00:45:01;;;;;;;;;;;;;;;;;;2055199;28;19926;-46
2021/12/01 00:46:10;;;;;;;;;;;;;;;;;;2057120;28;19956;-44
2021/12/01 00:47:12;;;;;;;;;;;;;;;;;;2057272;28;19926;-44
2021/12/01 00:48:13;;;;;;;;;;;;;;;;;;2055202;28;20020;-45
2021/12/01 00:49:14;;;;;;;;;;;;;;;;;;2049372;29;19958;-44
2021/12/01 00:50:15;;;;;;;;;;;;;;;;;;2049209;29;20026;-44
2021/12/01 00:51:16;;;;;;;;;;;;;;;;;;2052722;28;20586;-45
2021/12/01 00:52:17;;;;;;;;;;;;;;;;;;2057147;28;20117;-44
2021/12/01 00:53:18;;;;;;;;;;;;;;;;;;2057295;28;20396;-44
2021/12/01 00:54:20;;;;;;;;;;;;;;;;;;2054790;28;19927;-44
2021/12/01 00:55:21;;;;;;;;;;;;;;;;;;2056982;28;19933;-43
2021/12/01 00:56:22;;;;;;;;;;;;;;;;;;2056134;28;20436;-45
2021/12/01 00:57:23;;;;;;;;;;;;;;;;;;2054140;28;19926;-44
2021/12/01 00:58:24;;;;;;;;;;;;;;;;;;2057249;28;19968;-44
2021/12/01 00:59:24;;;;;;;;;;;;;;;;;;2056614;28;20057;-44
2021/12/01 01:00:26;;;;;;;;;;;;;;;;;;2055349;28;19941;-44
2021/12/01 01:01:26;;;;;;;;;;;;;;;;;;2057097;28;20017;-44
2021/12/01 01:02:27;;;;;;;;;;;;;;;;;;2056493;28;19926;-44
2021/12/01 01:03:30;;;;;;;;;;;;;;;;;;2054477;28;19946;-43
2021/12/01 01:04:31;;;;;;;;;;;;;;;;;;2057104;28;20024;-43
2021/12/01 01:05:32;;;;;;;;;;;;;;;;;;2056084;28;19934;-43
2021/12/01 01:06:33;;;;;;;;;;;;;;;;;;2055860;28;19933;-47
2021/12/01 01:07:34;;;;;;;;;;;;;;;;;;2057218;28;20407;-47
2021/12/01 01:08:35;;;;;;;;;;;;;;;;;;2054918;28;20434;-44
2021/12/01 01:09:38;;;;;;;;;;;;;;;;;;2055724;28;20009;-44
2021/12/01 01:10:57;;;;;;;;;;;;;;;;;;2057240;28;20025;-44
2021/12/01 01:16:22;;;;;;;;;;;;;;;;;;2049312;28;20325;-50
2021/12/01 01:17:36;;;;;;;;;;;;;;;;;;2049518;28;19930;-47
2021/12/01 01:18:37;;;;;;;;;;;;;;;;;;2055882;28;20414;-49
2021/12/01 01:19:38;;;;;;;;;;;;;;;;;;2057087;28;19930;-47
2021/12/01 01:20:39;;;;;;;;;;;;;;;;;;2055031;28;19965;-51
2021/12/01 01:21:43;;;;;;;;;;;;;;;;;;2056765;28;19976;-48
2021/12/01 01:22:44;;;;;;;;;;;;;;;;;;2056988;28;20454;-48
2021/12/01 01:23:45;;;;;;;;;;;;;;;;;;2054691;28;19930;-49
2021/12/01 01:24:45;;;;;;;;;;;;;;;;;;2057308;28;20009;-44
2021/12/01 01:25:47;;;;;;;;;;;;;;;;;;2057020;28;19961;-44
2021/12/01 01:26:48;;;;;;;;;;;;;;;;;;2054823;28;20014;-44
2021/12/01 01:27:48;;;;;;;;;;;;;;;;;;2056935;28;19976;-44
2021/12/01 01:28:49;;;;;;;;;;;;;;;;;;2057114;28;19945;-44
2021/12/01 01:29:50;;;;;;;;;;;;;;;;;;2054773;28;19934;-44
2021/12/01 01:30:52;;;;;;;;;;;;;;;;;;2057149;28;20307;-44
2021/12/01 01:31:53;;;;;;;;;;;;;;;;;;2056932;28;19950;-44
2021/12/01 01:32:54;;;;;;;;;;;;;;;;;;2054689;28;19926;-44
2021/12/01 01:33:57;;;;;;;;;;;;;;;;;;2056995;28;19981;-44
2021/12/01 01:34:58;;;;;;;;;;;;;;;;;;2056513;28;19966;-44
2021/12/01 01:35:59;;;;;;;;;;;;;;;;;;2055097;28;20443;-44
2021/12/01 01:37:00;;;;;;;;;;;;;;;;;;2056963;28;19926;-44
2021/12/01 01:38:01;;;;;;;;;;;;;;;;;;2056316;28;20499;-45
2021/12/01 01:39:02;;;;;;;;;;;;;;;;;;2055222;28;19981;-43
2021/12/01 01:40:03;;;;;;;;;;;;;;;;;;2057125;28;20036;-44
2021/12/01 01:41:04;;;;;;;;;;;;;;;;;;2055109;28;19926;-44
2021/12/01 01:42:05;;;;;;;;;;;;;;;;;;2055239;28;19926;-44
2021/12/01 01:43:06;;;;;;;;;;;;;;;;;;2056959;28;19926;-44
2021/12/01 01:44:06;;;;;;;;;;;;;;;;;;2055930;28;20040;-44
2021/12/01 01:45:07;;;;;;;;;;;;;;;;;;2054588;28;19927;-44
2021/12/01 01:46:08;;;;;;;;;;;;;;;;;;2056959;28;20406;-43
2021/12/01 01:47:11;;;;;;;;;;;;;;;;;;2056338;28;20008;-48
2021/12/01 01:48:13;;;;;;;;;;;;;;;;;;2055571;28;20005;-46
2021/12/01 01:49:17;;;;;;;;;;;;;;;;;;2057045;28;19927;-48
2021/12/01 01:50:27;;;;;;;;;;;;;;;;;;2055692;28;20359;-47
2021/12/01 01:51:28;;;;;;;;;;;;;;;;;;2049465;28;20410;-47
2021/12/01 01:52:29;;;;;;;;;;;;;;;;;;2052864;28;20057;-50
2021/12/01 01:53:30;;;;;;;;;;;;;;;;;;2054528;28;20388;-49
2021/12/01 01:54:31;;;;;;;;;;;;;;;;;;2057167;28;20006;-47
2021/12/01 01:55:32;;;;;;;;;;;;;;;;;;2056822;28;19933;-46
2021/12/01 01:56:33;;;;;;;;;;;;;;;;;;2053316;28;20032;-48
2021/12/01 01:57:34;;;;;;;;;;;;;;;;;;2056796;28;20021;-47
2021/12/01 01:58:35;;;;;;;;;;;;;;;;;;2057059;28;19926;-47
2021/12/01 01:59:36;;;;;;;;;;;;;;;;;;2053117;28;20037;-51
2021/12/01 02:00:44;;;;;;;;;;;;;;;;;;2057052;28;19926;-48
2021/12/01 02:01:45;;;;;;;;;;;;;;;;;;2056220;28;19930;-48
2021/12/01 02:02:47;;;;;;;;;;;;;;;;;;2053588;28;20512;-47
2021/12/01 02:03:49;;;;;;;;;;;;;;;;;;2065137;28;19996;-47
2021/12/01 02:04:50;;;;;;;;;;;;;;;;;;2061808;28;19988;-44
2021/12/01 02:05:50;;;;;;;;;;;;;;;;;;2054309;28;20029;-44
2021/12/01 02:06:52;;;;;;;;;;;;;;;;;;2056952;28;19926;-44
2021/12/01 02:07:53;;;;;;;;;;;;;;;;;;2056482;28;20029;-45
2021/12/01 02:08:55;;;;;;;;;;;;;;;;;;2056943;28;20009;-44
2021/12/01 02:09:56;;;;;;;;;;;;;;;;;;2058232;28;19930;-45
2021/12/01 02:10:57;;;;;;;;;;;;;;;;;;2055083;28;19935;-45
2021/12/01 02:11:58;;;;;;;;;;;;;;;;;;2050162;28;19931;-45
2021/12/01 02:12:59;;;;;;;;;;;;;;;;;;2050148;29;19966;-44
2021/12/01 02:14:00;;;;;;;;;;;;;;;;;;2054491;28;19927;-44
2021/12/01 02:15:01;;;;;;;;;;;;;;;;;;2050313;29;20261;-44
2021/12/01 02:16:02;;;;;;;;;;;;;;;;;;2050145;28;19926;-44
2021/12/01 02:17:03;;;;;;;;;;;;;;;;;;2053686;28;19941;-45
2021/12/01 02:18:04;;;;;;;;;;;;;;;;;;2058320;28;19933;-47
2021/12/01 02:19:04;;;;;;;;;;;;;;;;;;2058434;28;20017;-47
2021/12/01 02:20:07;;;;;;;;;;;;;;;;;;2054453;28;19948;-48
2021/12/01 02:21:08;;;;;;;;;;;;;;;;;;2058162;28;19973;-51
2021/12/01 02:22:09;;;;;;;;;;;;;;;;;;2057558;28;19972;-47
2021/12/01 02:23:10;;;;;;;;;;;;;;;;;;2056306;28;20005;-47
2021/12/01 02:24:11;;;;;;;;;;;;;;;;;;2058319;28;19926;-44
2021/12/01 02:25:12;;;;;;;;;;;;;;;;;;2057561;28;20008;-44
2021/12/01 02:26:13;;;;;;;;;;;;;;;;;;2055127;28;19934;-44
2021/12/01 02:27:14;;;;;;;;;;;;;;;;;;2058232;28;20018;-45
2021/12/01 02:28:15;;;;;;;;;;;;;;;;;;2057392;28;19981;-44
2021/12/01 02:29:15;;;;;;;;;;;;;;;;;;2056239;28;20080;-45
2021/12/01 02:30:16;;;;;;;;;;;;;;;;;;2058201;28;20355;-44
2021/12/01 02:31:17;;;;;;;;;;;;;;;;;;2057126;28;20016;-44
2021/12/01 02:32:18;;;;;;;;;;;;;;;;;;2056651;28;19926;-44
2021/12/01 02:33:19;;;;;;;;;;;;;;;;;;2058045;28;20447;-45
2021/12/01 02:34:20;;;;;;;;;;;;;;;;;;2056726;28;20134;-44
2021/12/01 02:35:21;;;;;;;;;;;;;;;;;;2056212;28;20021;-43
2021/12/01 02:36:22;;;;;;;;;;;;;;;;;;2058033;28;19932;-44
2021/12/01 02:37:23;;;;;;;;;;;;;;;;;;2055627;28;20447;-45
2021/12/01 02:38:24;;;;;;;;;;;;;;;;;;2056788;28;19926;-44
2021/12/01 02:39:25;;;;;;;;;;;;;;;;;;2058145;28;20060;-45
2021/12/01 02:40:26;;;;;;;;;;;;;;;;;;2055671;28;20023;-44
2021/12/01 02:41:26;;;;;;;;;;;;;;;;;;2056719;28;20484;-45
2021/12/01 02:42:27;;;;;;;;;;;;;;;;;;2057841;28;19926;-44
2021/12/01 02:43:29;;;;;;;;;;;;;;;;;;2055769;28;20016;-44
2021/12/01 02:44:30;;;;;;;;;;;;;;;;;;2056665;28;20021;-44
2021/12/01 02:45:31;;;;;;;;;;;;;;;;;;2058008;28;19973;-45
2021/12/01 02:46:32;;;;;;;;;;;;;;;;;;2056506;28;19977;-45
2021/12/01 02:47:33;;;;;;;;;;;;;;;;;;2057115;28;19940;-45
2021/12/01 02:48:41;;;;;;;;;;;;;;;;;;2057648;28;19934;-44
2021/12/01 02:49:42;;;;;;;;;;;;;;;;;;2055559;28;19988;-44
2021/12/01 02:50:43;;;;;;;;;;;;;;;;;;2057917;28;19969;-44
2021/12/01 02:51:44;;;;;;;;;;;;;;;;;;2057909;28;19930;-46
2021/12/01 02:52:46;;;;;;;;;;;;;;;;;;2054826;28;19930;-44
2021/12/01 02:53:47;;;;;;;;;;;;;;;;;;2057932;28;20011;-44
2021/12/01 02:54:47;;;;;;;;;;;;;;;;;;2057000;28;20265;-44
2021/12/01 02:55:49;;;;;;;;;;;;;;;;;;2055402;28;19926;-44
2021/12/01 02:56:49;;;;;;;;;;;;;;;;;;2058001;28;20009;-43
2021/12/01 02:57:50;;;;;;;;;;;;;;;;;;2056114;28;20016;-45
2021/12/01 02:58:51;;;;;;;;;;;;;;;;;;2055160;28;19998;-44
2021/12/01 02:59:52;;;;;;;;;;;;;;;;;;2057807;28;19930;-44
2021/12/01 03:00:53;;;;;;;;;;;;;;;;;;2057256;28;20009;-44
2021/12/01 03:01:54;;;;;;;;;;;;;;;;;;2056186;28;20451;-44
2021/12/01 03:02:56;;;;;;;;;;;;;;;;;;2057592;28;19980;-45
2021/12/01 03:03:57;;;;;;;;;;;;;;;;;;2062387;28;19934;-45
2021/12/01 03:04:58;;;;;;;;;;;;;;;;;;2056433;28;20025;-44
2021/12/01 03:05:59;;;;;;;;;;;;;;;;;;2057902;28;19926;-44
2021/12/01 03:07:00;;;;;;;;;;;;;;;;;;2056816;28;19933;-45
2021/12/01 03:08:01;;;;;;;;;;;;;;;;;;2055593;28;19933;-44
2021/12/01 03:09:02;;;;;;;;;;;;;;;;;;2057917;28;19974;-44
2021/12/01 03:10:03;;;;;;;;;;;;;;;;;;2056610;28;19934;-44
2021/12/01 03:11:04;;;;;;;;;;;;;;;;;;2057347;28;19926;-44
2021/12/01 03:12:05;;;;;;;;;;;;;;;;;;2057763;28;19930;-44
2021/12/01 03:13:06;;;;;;;;;;;;;;;;;;2056778;28;19926;-44
2021/12/01 03:14:07;;;;;;;;;;;;;;;;;;2056563;28;20347;-44
2021/12/01 03:15:07;;;;;;;;;;;;;;;;;;2057935;28;19933;-44
2021/12/01 03:16:08;;;;;;;;;;;;;;;;;;2056659;28;19926;-44
2021/12/01 03:17:09;;;;;;;;;;;;;;;;;;2056618;28;19926;-44
2021/12/01 03:18:10;;;;;;;;;;;;;;;;;;2057725;28;20284;-44
2021/12/01 03:19:11;;;;;;;;;;;;;;;;;;2056027;28;20434;-44
2021/12/01 03:20:14;;;;;;;;;;;;;;;;;;2057178;28;19930;-45
2021/12/01 03:21:15;;;;;;;;;;;;;;;;;;2057728;28;20421;-44
2021/12/01 03:22:16;;;;;;;;;;;;;;;;;;2055509;28;20029;-44
2021/12/01 03:23:17;;;;;;;;;;;;;;;;;;2057695;28;20307;-44
2021/12/01 03:24:18;;;;;;;;;;;;;;;;;;2057886;28;19936;-44
2021/12/01 03:25:19;;;;;;;;;;;;;;;;;;2054235;28;19933;-45
2021/12/01 03:26:20;;;;;;;;;;;;;;;;;;2057704;28;20021;-44
2021/12/01 03:27:21;;;;;;;;;;;;;;;;;;2057115;28;19926;-44
2021/12/01 03:28:22;;;;;;;;;;;;;;;;;;2055942;28;20020;-44
2021/12/01 03:29:23;;;;;;;;;;;;;;;;;;2057749;28;19926;-45
2021/12/01 03:30:24;;;;;;;;;;;;;;;;;;2056489;28;20029;-44
2021/12/01 03:31:25;;;;;;;;;;;;;;;;;;2055386;28;19933;-44
2021/12/01 03:32:26;;;;;;;;;;;;;;;;;;2057828;28;19926;-44
2021/12/01 03:33:27;;;;;;;;;;;;;;;;;;2057321;28;20020;-44
2021/12/01 03:34:28;;;;;;;;;;;;;;;;;;2055049;28;20439;-44
2021/12/01 03:35:29;;;;;;;;;;;;;;;;;;2057681;28;20635;-44
2021/12/01 03:36:31;;;;;;;;;;;;;;;;;;2055754;28;19962;-43
2021/12/01 03:37:31;;;;;;;;;;;;;;;;;;2055910;28;20338;-44
2021/12/01 03:38:32;;;;;;;;;;;;;;;;;;2057637;28;19927;-45
2021/12/01 03:39:33;;;;;;;;;;;;;;;;;;2056735;28;20354;-45
2021/12/01 03:40:34;;;;;;;;;;;;;;;;;;2056351;28;19926;-45
2021/12/01 03:41:35;;;;;;;;;;;;;;;;;;2057742;28;19926;-44
2021/12/01 03:42:36;;;;;;;;;;;;;;;;;;2056593;28;19926;-44
2021/12/01 03:43:37;;;;;;;;;;;;;;;;;;2056260;28;19980;-44
2021/12/01 03:44:38;;;;;;;;;;;;;;;;;;2057290;28;19977;-44
2021/12/01 03:45:39;;;;;;;;;;;;;;;;;;2055968;28;19934;-44
2021/12/01 03:46:40;;;;;;;;;;;;;;;;;;2056945;28;19926;-46
2021/12/01 03:47:41;;;;;;;;;;;;;;;;;;2057533;28;20065;-45
2021/12/01 03:48:42;;;;;;;;;;;;;;;;;;2055423;28;19972;-44
2021/12/01 03:49:43;;;;;;;;;;;;;;;;;;2057305;28;19926;-43
2021/12/01 03:50:48;;;;;;;;;;;;;;;;;;2057738;28;19926;-44
2021/12/01 03:51:49;;;;;;;;;;;;;;;;;;2054046;28;20080;-44
2021/12/01 03:52:50;;;;;;;;;;;;;;;;;;2056667;28;20017;-44
2021/12/01 03:53:51;;;;;;;;;;;;;;;;;;2057468;28;20372;-46
2021/12/01 03:54:52;;;;;;;;;;;;;;;;;;2055265;28;19933;-44
2021/12/01 03:55:53;;;;;;;;;;;;;;;;;;2057594;28;20029;-44
2021/12/01 03:56:54;;;;;;;;;;;;;;;;;;2057442;28;19926;-45
2021/12/01 03:57:54;;;;;;;;;;;;;;;;;;2055226;28;20377;-44
2021/12/01 03:58:56;;;;;;;;;;;;;;;;;;2057508;28;19926;-43
2021/12/01 03:59:56;;;;;;;;;;;;;;;;;;2057674;28;20016;-44
2021/12/01 04:00:57;;;;;;;;;;;;;;;;;;2054129;28;19969;-45
2021/12/01 04:01:58;;;;;;;;;;;;;;;;;;2049591;28;19937;-44
2021/12/01 04:03:00;;;;;;;;;;;;;;;;;;2050748;28;20304;-44
2021/12/01 04:04:00;;;;;;;;;;;;;;;;;;2055606;28;19950;-45
2021/12/01 04:05:01;;;;;;;;;;;;;;;;;;2057577;28;19926;-44
2021/12/01 04:06:02;;;;;;;;;;;;;;;;;;2055908;28;19972;-45
2021/12/01 04:07:03;;;;;;;;;;;;;;;;;;2055463;28;19974;-44
2021/12/01 04:08:04;;;;;;;;;;;;;;;;;;2057429;28;20403;-44
2021/12/01 04:09:05;;;;;;;;;;;;;;;;;;2056778;28;19927;-44
2021/12/01 04:10:06;;;;;;;;;;;;;;;;;;2054691;28;20021;-44
2021/12/01 04:11:07;;;;;;;;;;;;;;;;;;2057472;28;19926;-45
2021/12/01 04:12:08;;;;;;;;;;;;;;;;;;2056763;28;20017;-45
2021/12/01 04:13:09;;;;;;;;;;;;;;;;;;2055870;28;19930;-44
2021/12/01 04:14:10;;;;;;;;;;;;;;;;;;2057656;28;19929;-44
2021/12/01 04:15:11;;;;;;;;;;;;;;;;;;2056621;28;19976;-44
2021/12/01 04:16:12;;;;;;;;;;;;;;;;;;2056107;28;20012;-45
2021/12/01 04:17:13;;;;;;;;;;;;;;;;;;2057348;28;19980;-44
2021/12/01 04:18:14;;;;;;;;;;;;;;;;;;2056334;28;19930;-44
2021/12/01 04:19:14;;;;;;;;;;;;;;;;;;2056311;28;19926;-45
2021/12/01 04:20:16;;;;;;;;;;;;;;;;;;2057437;28;19926;-44
2021/12/01 04:21:20;;;;;;;;;;;;;;;;;;2055668;28;20017;-45
2021/12/01 04:22:21;;;;;;;;;;;;;;;;;;2057083;28;20348;-44
2021/12/01 04:23:21;;;;;;;;;;;;;;;;;;2057440;28;20001;-44
2021/12/01 04:24:22;;;;;;;;;;;;;;;;;;2055274;28;20442;-44
2021/12/01 04:25:23;;;;;;;;;;;;;;;;;;2056979;28;20045;-44
2021/12/01 04:26:26;;;;;;;;;;;;;;;;;;2057531;28;19933;-45
2021/12/01 04:27:27;;;;;;;;;;;;;;;;;;2054187;28;19977;-46
2021/12/01 04:28:29;;;;;;;;;;;;;;;;;;2057308;28;19930;-47
2021/12/01 04:29:29;;;;;;;;;;;;;;;;;;2056895;28;19974;-48
2021/12/01 04:30:30;;;;;;;;;;;;;;;;;;2054676;28;20284;-48
2021/12/01 04:31:32;;;;;;;;;;;;;;;;;;2057699;28;20005;-44
2021/12/01 04:32:33;;;;;;;;;;;;;;;;;;2055342;28;19934;-46
2021/12/01 04:33:34;;;;;;;;;;;;;;;;;;2055684;28;20021;-44
2021/12/01 04:34:35;;;;;;;;;;;;;;;;;;2057601;28;19949;-45
2021/12/01 04:35:36;;;;;;;;;;;;;;;;;;2055508;28;20014;-44
2021/12/01 04:36:39;;;;;;;;;;;;;;;;;;2054402;28;19927;-44
2021/12/01 04:37:40;;;;;;;;;;;;;;;;;;2057205;28;20059;-45
2021/12/01 04:38:41;;;;;;;;;;;;;;;;;;2056534;28;20356;-44
2021/12/01 04:39:42;;;;;;;;;;;;;;;;;;2055748;28;20052;-45
2021/12/01 04:40:43;;;;;;;;;;;;;;;;;;2057091;28;19961;-44
2021/12/01 04:41:52;;;;;;;;;;;;;;;;;;2054930;28;20466;-44
2021/12/01 04:42:53;;;;;;;;;;;;;;;;;;2056392;28;20024;-47
2021/12/01 04:43:53;;;;;;;;;;;;;;;;;;2057311;28;19957;-48
2021/12/01 04:44:55;;;;;;;;;;;;;;;;;;2055154;28;19926;-47
2021/12/01 04:45:58;;;;;;;;;;;;;;;;;;2056197;28;20012;-48
2021/12/01 04:47:02;;;;;;;;;;;;;;;;;;2057272;28;19930;-48
2021/12/01 04:48:03;;;;;;;;;;;;;;;;;;2054826;28;19970;-49
2021/12/01 04:49:04;;;;;;;;;;;;;;;;;;2057354;28;20013;-48
2021/12/01 04:50:05;;;;;;;;;;;;;;;;;;2057359;28;20331;-44
2021/12/01 04:51:05;;;;;;;;;;;;;;;;;;2053636;28;20384;-48
2021/12/01 04:52:06;;;;;;;;;;;;;;;;;;2057258;28;19930;-48
2021/12/01 04:53:07;;;;;;;;;;;;;;;;;;2055378;28;19981;-50
2021/12/01 04:54:08;;;;;;;;;;;;;;;;;;2055401;28;19926;-49
2021/12/01 04:55:09;;;;;;;;;;;;;;;;;;2057158;28;20016;-50
2021/12/01 04:56:10;;;;;;;;;;;;;;;;;;2056275;28;19981;-47
2021/12/01 04:57:11;;;;;;;;;;;;;;;;;;2049423;28;19933;-48
2021/12/01 04:58:12;;;;;;;;;;;;;;;;;;2049336;28;19926;-49
2021/12/01 04:59:13;;;;;;;;;;;;;;;;;;2051298;28;20366;-48
2021/12/01 05:00:14;;;;;;;;;;;;;;;;;;2057080;28;19926;-48
2021/12/01 05:01:15;;;;;;;;;;;;;;;;;;2057295;28;20009;-47
2021/12/01 05:02:16;;;;;;;;;;;;;;;;;;2055176;28;19937;-48
2021/12/01 05:03:17;;;;;;;;;;;;;;;;;;2059598;28;19926;-52
2021/12/01 05:04:24;;;;;;;;;;;;;;;;;;2065197;28;19933;-48
2021/12/01 05:05:25;;;;;;;;;;;;;;;;;;2055024;28;20005;-47
2021/12/01 05:06:26;;;;;;;;;;;;;;;;;;2057214;28;19977;-47
2021/12/01 05:07:27;;;;;;;;;;;;;;;;;;2056703;28;20092;-48
2021/12/01 05:08:28;;;;;;;;;;;;;;;;;;2055224;28;20032;-48
2021/12/01 05:09:29;;;;;;;;;;;;;;;;;;2056915;28;19930;-47
2021/12/01 05:10:30;;;;;;;;;;;;;;;;;;2056440;28;19953;-48
2021/12/01 05:11:31;;;;;;;;;;;;;;;;;;2055253;28;20030;-46
2021/12/01 05:12:43;;;;;;;;;;;;;;;;;;2057201;28;19926;-47
2021/12/01 05:13:44;;;;;;;;;;;;;;;;;;2056381;28;19930;-46
2021/12/01 05:14:45;;;;;;;;;;;;;;;;;;2055935;28;20012;-49
2021/12/01 05:15:46;;;;;;;;;;;;;;;;;;2057134;28;20021;-46
2021/12/01 05:16:47;;;;;;;;;;;;;;;;;;2056003;28;19926;-48
2021/12/01 05:17:49;;;;;;;;;;;;;;;;;;2054953;28;20022;-47
2021/12/01 05:18:50;;;;;;;;;;;;;;;;;;2057262;28;20016;-44
2021/12/01 05:19:51;;;;;;;;;;;;;;;;;;2055012;28;20396;-45
2021/12/01 05:20:52;;;;;;;;;;;;;;;;;;2055878;28;19926;-45
2021/12/01 05:21:54;;;;;;;;;;;;;;;;;;2057137;28;19926;-44
2021/12/01 05:22:55;;;;;;;;;;;;;;;;;;2056104;28;19958;-44
2021/12/01 05:23:56;;;;;;;;;;;;;;;;;;2055854;28;19926;-44
2021/12/01 05:24:57;;;;;;;;;;;;;;;;;;2057102;28;19945;-48
2021/12/01 05:25:58;;;;;;;;;;;;;;;;;;2054704;28;20017;-44
2021/12/01 05:26:59;;;;;;;;;;;;;;;;;;2056801;28;19930;-44
2021/12/01 05:27:59;;;;;;;;;;;;;;;;;;2057149;28;20013;-44
2021/12/01 05:29:00;;;;;;;;;;;;;;;;;;2053736;28;19930;-45
2021/12/01 05:30:01;;;;;;;;;;;;;;;;;;2049204;29;20013;-44
2021/12/01 05:31:03;;;;;;;;;;;;;;;;;;2049061;29;20407;-43
2021/12/01 05:32:04;;;;;;;;;;;;;;;;;;2054038;28;19941;-46
2021/12/01 05:33:06;;;;;;;;;;;;;;;;;;2057118;28;20391;-46
2021/12/01 05:34:07;;;;;;;;;;;;;;;;;;2057104;28;19969;-48
2021/12/01 05:35:08;;;;;;;;;;;;;;;;;;2054030;28;19961;-46
2021/12/01 05:36:10;;;;;;;;;;;;;;;;;;2057065;28;19930;-46
2021/12/01 05:37:11;;;;;;;;;;;;;;;;;;2056132;28;19976;-46
2021/12/01 05:38:11;;;;;;;;;;;;;;;;;;2055022;28;20009;-46
2021/12/01 05:39:12;;;;;;;;;;;;;;;;;;2056968;28;20284;-53
2021/12/01 05:40:13;;;;;;;;;;;;;;;;;;2056327;28;20380;-47
2021/12/01 05:41:14;;;;;;;;;;;;;;;;;;2055389;28;19926;-46
2021/12/01 05:42:16;;;;;;;;;;;;;;;;;;2057772;28;20021;-47
2021/12/01 05:43:17;;;;;;;;;;;;;;;;;;2057945;28;20037;-43
2021/12/01 05:44:19;;;;;;;;;;;;;;;;;;2056573;28;20431;-42
2021/12/01 05:45:20;;;;;;;;;;;;;;;;;;2058580;28;19926;-47
2021/12/01 05:46:20;;;;;;;;;;;;;;;;;;2057679;28;20013;-48
2021/12/01 05:47:22;;;;;;;;;;;;;;;;;;2055704;28;20367;-46
2021/12/01 05:48:22;;;;;;;;;;;;;;;;;;2058431;28;20013;-46
2021/12/01 05:49:23;;;;;;;;;;;;;;;;;;2057365;28;19948;-47
2021/12/01 05:50:27;;;;;;;;;;;;;;;;;;2056829;28;20170;-44
2021/12/01 05:51:28;;;;;;;;;;;;;;;;;;2058369;28;19949;-43
2021/12/01 05:52:29;;;;;;;;;;;;;;;;;;2055097;28;20025;-44
2021/12/01 05:53:30;;;;;;;;;;;;;;;;;;2050286;29;20407;-43
2021/12/01 05:54:31;;;;;;;;;;;;;;;;;;2050328;29;19926;-43
2021/12/01 05:55:32;;;;;;;;;;;;;;;;;;2055121;28;20417;-44
2021/12/01 05:56:33;;;;;;;;;;;;;;;;;;2058295;28;19965;-43
2021/12/01 05:57:34;;;;;;;;;;;;;;;;;;2058207;28;19968;-43
2021/12/01 05:58:35;;;;;;;;;;;;;;;;;;2055978;28;19926;-43
2021/12/01 05:59:35;;;;;;;;;;;;;;;;;;2058416;28;20017;-43
2021/12/01 06:00:39;;;;;;;;;;;;;;;;;;2057795;28;19938;-43
2021/12/01 06:01:40;;;;;;;;;;;;;;;;;;2056496;28;19934;-44
2021/12/01 06:02:42;;;;;;;;;;;;;;;;;;2058117;28;20410;-43
2021/12/01 06:03:43;;;;;;;;;;;;;;;;;;2062540;28;19973;-43
2021/12/01 06:04:44;;;;;;;;;;;;;;;;;;2056742;28;20386;-43
2021/12/01 06:05:45;;;;;;;;;;;;;;;;;;2058326;28;19930;-47
2021/12/01 06:06:46;;;;;;;;;;;;;;;;;;2057770;28;20269;-48
2021/12/01 06:07:47;;;;;;;;;;;;;;;;;;2055371;28;19926;-47
2021/12/01 06:08:48;;;;;;;;;;;;;;;;;;2058147;28;20299;-47
2021/12/01 06:09:49;;;;;;;;;;;;;;;;;;2057307;28;19926;-46
2021/12/01 06:10:50;;;;;;;;;;;;;;;;;;2056815;28;20458;-50
2021/12/01 06:11:52;;;;;;;;;;;;;;;;;;2058184;28;19926;-45
2021/12/01 06:12:54;;;;;;;;;;;;;;;;;;2056921;28;19996;-49
2021/12/01 06:13:56;;;;;;;;;;;;;;;;;;2056224;28;20024;-46
2021/12/01 06:14:58;;;;;;;;;;;;;;;;;;2058275;28;19976;-48
2021/12/01 06:15:59;;;;;;;;;;;;;;;;;;2055604;28;20052;-50
2021/12/01 06:17:00;;;;;;;;;;;;;;;;;;2050676;28;19927;-47
2021/12/01 06:18:01;;;;;;;;;;;;;;;;;;2050219;28;19934;-49
2021/12/01 06:19:02;;;;;;;;;;;;;;;;;;2054546;28;19969;-48
2021/12/01 06:20:02;;;;;;;;;;;;;;;;;;2057032;28;20021;-47
2021/12/01 06:21:04;;;;;;;;;;;;;;;;;;2058060;28;20316;-48
2021/12/01 06:22:04;;;;;;;;;;;;;;;;;;2056073;28;20439;-44
2021/12/01 06:23:05;;;;;;;;;;;;;;;;;;2058037;28;19933;-44
2021/12/01 06:24:06;;;;;;;;;;;;;;;;;;2058114;28;19965;-44
2021/12/01 06:25:07;;;;;;;;;;;;;;;;;;2055852;28;20017;-42
2021/12/01 06:26:08;;;;;;;;;;;;;;;;;;2050065;29;19926;-44
2021/12/01 06:27:09;;;;;;;;;;;;;;;;;;2050035;29;19931;-44
2021/12/01 06:28:10;;;;;;;;;;;;;;;;;;2052472;28;19934;-44
2021/12/01 06:29:11;;;;;;;;;;;;;;;;;;2050231;28;19926;-45
2021/12/01 06:30:12;;;;;;;;;;;;;;;;;;2051394;28;20459;-44
2021/12/01 06:31:13;;;;;;;;;;;;;;;;;;2056673;28;19926;-44
2021/12/01 06:32:14;;;;;;;;;;;;;;;;;;2057986;28;20300;-45
2021/12/01 06:33:15;;;;;;;;;;;;;;;;;;2055826;28;19966;-45
2021/12/01 06:34:16;;;;;;;;;;;;;;;;;;2056788;28;20435;-45
2021/12/01 06:35:17;;;;;;;;;;;;;;;;;;2058104;28;19926;-44
2021/12/01 06:36:18;;;;;;;;;;;;;;;;;;2055960;28;19978;-50
2021/12/01 06:37:19;;;;;;;;;;;;;;;;;;2055611;28;19933;-46
2021/12/01 06:38:20;;;;;;;;;;;;;;;;;;2057964;28;20018;-50
2021/12/01 06:39:21;;;;;;;;;;;;;;;;;;2055391;28;20061;-48
2021/12/01 06:40:22;;;;;;;;;;;;;;;;;;2056217;28;20329;-49
2021/12/01 06:41:23;;;;;;;;;;;;;;;;;;2058013;28;19933;-48
2021/12/01 06:42:23;;;;;;;;;;;;;;;;;;2055574;28;20376;-47
2021/12/01 06:43:25;;;;;;;;;;;;;;;;;;2051031;28;20221;-44
2021/12/01 06:44:25;;;;;;;;;;;;;;;;;;2050079;28;20299;-44
2021/12/01 06:45:26;;;;;;;;;;;;;;;;;;2053089;28;19930;-44
2021/12/01 06:46:28;;;;;;;;;;;;;;;;;;2057740;28;20016;-44
2021/12/01 06:47:29;;;;;;;;;;;;;;;;;;2058054;28;19930;-45
2021/12/01 06:48:30;;;;;;;;;;;;;;;;;;2055118;28;19926;-45
2021/12/01 06:49:31;;;;;;;;;;;;;;;;;;2057313;28;19973;-46
2021/12/01 06:50:32;;;;;;;;;;;;;;;;;;2058058;28;20291;-44
2021/12/01 06:51:33;;;;;;;;;;;;;;;;;;2053437;28;20283;-45
2021/12/01 06:52:34;;;;;;;;;;;;;;;;;;2057848;28;19926;-45
2021/12/01 06:53:35;;;;;;;;;;;;;;;;;;2057352;28;20053;-44
2021/12/01 06:54:36;;;;;;;;;;;;;;;;;;2055567;28;20013;-44
2021/12/01 06:55:37;;;;;;;;;;;;;;;;;;2057959;28;19932;-45
2021/12/01 06:56:38;;;;;;;;;;;;;;;;;;2058009;28;20017;-44
2021/12/01 06:57:38;;;;;;;;;;;;;;;;;;2055661;28;20290;-49
2021/12/01 06:58:40;;;;;;;;;;;;;;;;;;2058199;28;20017;-47
2021/12/01 06:59:40;;;;;;;;;;;;;;;;;;2057476;28;20013;-49
2021/12/01 07:00:41;;;;;;;;;;;;;;;;;;2055948;28;19926;-46
2021/12/01 07:01:42;;;;;;;;;;;;;;;;;;2058043;28;19933;-47
2021/12/01 07:02:43;;;;;;;;;;;;;;;;;;2057335;28;20343;-47